sensor_id;sensor_type;location;lat;lon;timestamp;P1;durP1;ratioP1;P2;durP2;ratioP2
45382;SDS011;42455;51.660;5.824;2023-07-30T00:00:06;5.0;;;3.0;;
45382;SDS011;42455;51.660;5.824;2023-07-30T00:05:11;7.0;;;3.0;;
45382;SDS011;42455;51.660;5.824;2023-07-30T00:10:18;7.0;;;3.0;;
45382;SDS011;42455;51.660;5.824;2023-07-30T00:15:24;5.0;;;3.0;;
45382;SDS011;42455;51.660;5.824;2023-07-30T00:20:30;5.0;;;3.0;;
45382;SDS011;42455;51.660;5.824;2023-07-30T00:25:36;6.0;;;3.0;;
45382;SDS011;42455;51.660;5.824;2023-07-30T00:30:42;6.0;;;3.0;;
45382;SDS011;42455;51.660;5.824;2023-07-30T00:35:50;5.0;;;3.0;;
45382;SDS011;42455;51.660;5.824;2023-07-30T00:40:55;6.0;;;3.0;;
45382;SDS011;42455;51.660;5.824;2023-07-30T00:46:01;6.0;;;3.0;;
45382;SDS011;42455;51.660;5.824;2023-07-30T00:51:07;5.0;;;3.0;;
45382;SDS011;42455;51.660;5.824;2023-07-30T00:56:14;6.0;;;3.0;;
45382;SDS011;42455;51.660;5.824;2023-07-30T01:01:20;5.0;;;3.0;;
45382;SDS011;42455;51.660;5.824;2023-07-30T01:06:26;5.5;;;3.0;;
45382;SDS011;42455;51.660;5.824;2023-07-30T01:11:32;6.0;;;3.0;;
45382;SDS011;42455;51.660;5.824;2023-07-30T01:16:38;6.0;;;3.0;;
45382;SDS011;42455;51.660;5.824;2023-07-30T01:21:45;6.0;;;3.0;;
45382;SDS011;42455;51.660;5.824;2023-07-30T01:26:59;4.5;;;3.0;;
45382;SDS011;42455;51.660;5.824;2023-07-30T01:31:57;5.5;;;3.0;;
45382;SDS011;42455;51.660;5.824;2023-07-30T01:37:05;5.0;;;3.0;;
45382;SDS011;42455;51.660;5.824;2023-07-30T01:42:11;6.0;;;3.0;;
45382;SDS011;42455;51.660;5.824;2023-07-30T01:47:16;5.0;;;3.0;;
45382;SDS011;42455;51.660;5.824;2023-07-30T01:52:22;6.0;;;3.0;;
45382;SDS011;42455;51.660;5.824;2023-07-30T01:57:28;7.0;;;4.0;;
45382;SDS011;42455;51.660;5.824;2023-07-30T02:02:34;6.0;;;3.0;;
45382;SDS011;42455;51.660;5.824;2023-07-30T02:07:39;7.5;;;3.0;;
45382;SDS011;42455;51.660;5.824;2023-07-30T02:12:46;6.0;;;3.0;;
45382;SDS011;42455;51.660;5.824;2023-07-30T02:17:52;6.0;;;4.0;;
45382;SDS011;42455;51.660;5.824;2023-07-30T02:22:58;7.0;;;4.0;;
45382;SDS011;42455;51.660;5.824;2023-07-30T02:28:04;6.0;;;3.0;;
45382;SDS011;42455;51.660;5.824;2023-07-30T02:33:10;7.0;;;4.0;;
45382;SDS011;42455;51.660;5.824;2023-07-30T02:38:17;7.0;;;3.0;;
45382;SDS011;42455;51.660;5.824;2023-07-30T02:43:23;6.0;;;4.0;;
45382;SDS011;42455;51.660;5.824;2023-07-30T02:48:29;6.5;;;4.0;;
45382;SDS011;42455;51.660;5.824;2023-07-30T02:53:35;8.0;;;4.0;;
45382;SDS011;42455;51.660;5.824;2023-07-30T02:58:42;6.0;;;4.0;;
45382;SDS011;42455;51.660;5.824;2023-07-30T03:03:48;6.0;;;4.0;;
45382;SDS011;42455;51.660;5.824;2023-07-30T03:08:54;7.0;;;4.0;;
45382;SDS011;42455;51.660;5.824;2023-07-30T03:14:00;9.0;;;5.0;;
45382;SDS011;42455;51.660;5.824;2023-07-30T03:19:06;9.0;;;5.0;;
45382;SDS011;42455;51.660;5.824;2023-07-30T03:24:13;11.0;;;6.0;;
45382;SDS011;42455;51.660;5.824;2023-07-30T03:29:19;12.0;;;6.0;;
45382;SDS011;42455;51.660;5.824;2023-07-30T03:34:25;11.0;;;7.0;;
45382;SDS011;42455;51.660;5.824;2023-07-30T03:39:31;11.0;;;7.0;;
45382;SDS011;42455;51.660;5.824;2023-07-30T03:44:37;14.0;;;8.0;;
45382;SDS011;42455;51.660;5.824;2023-07-30T03:49:44;15.0;;;8.0;;
45382;SDS011;42455;51.660;5.824;2023-07-30T03:54:50;14.0;;;8.0;;
45382;SDS011;42455;51.660;5.824;2023-07-30T03:59:56;15.5;;;9.0;;
45382;SDS011;42455;51.660;5.824;2023-07-30T04:05:02;15.5;;;9.0;;
45382;SDS011;42455;51.660;5.824;2023-07-30T04:10:08;15.0;;;8.0;;
45382;SDS011;42455;51.660;5.824;2023-07-30T04:15:15;15.0;;;8.0;;
45382;SDS011;42455;51.660;5.824;2023-07-30T04:20:21;17.0;;;9.0;;
45382;SDS011;42455;51.660;5.824;2023-07-30T04:25:27;14.0;;;8.0;;
45382;SDS011;42455;51.660;5.824;2023-07-30T04:30:33;16.0;;;8.0;;
45382;SDS011;42455;51.660;5.824;2023-07-30T04:35:40;16.0;;;8.0;;
45382;SDS011;42455;51.660;5.824;2023-07-30T04:40:46;15.0;;;8.0;;
45382;SDS011;42455;51.660;5.824;2023-07-30T04:45:52;15.0;;;8.0;;
45382;SDS011;42455;51.660;5.824;2023-07-30T04:50:58;12.5;;;7.0;;
45382;SDS011;42455;51.660;5.824;2023-07-30T04:56:04;16.0;;;7.0;;
45382;SDS011;42455;51.660;5.824;2023-07-30T05:01:10;13.5;;;7.0;;
45382;SDS011;42455;51.660;5.824;2023-07-30T05:06:17;15.0;;;7.0;;
45382;SDS011;42455;51.660;5.824;2023-07-30T05:11:23;12.0;;;7.0;;
45382;SDS011;42455;51.660;5.824;2023-07-30T05:16:29;13.0;;;7.0;;
45382;SDS011;42455;51.660;5.824;2023-07-30T05:21:35;12.0;;;7.0;;
45382;SDS011;42455;51.660;5.824;2023-07-30T05:26:42;15.0;;;7.0;;
45382;SDS011;42455;51.660;5.824;2023-07-30T05:31:48;14.0;;;7.0;;
45382;SDS011;42455;51.660;5.824;2023-07-30T05:36:54;15.0;;;8.0;;
45382;SDS011;42455;51.660;5.824;2023-07-30T05:47:06;16.0;;;8.0;;
45382;SDS011;42455;51.660;5.824;2023-07-30T05:52:13;15.5;;;8.0;;
45382;SDS011;42455;51.660;5.824;2023-07-30T05:57:19;14.0;;;8.0;;
45382;SDS011;42455;51.660;5.824;2023-07-30T06:02:25;12.5;;;8.0;;
45382;SDS011;42455;51.660;5.824;2023-07-30T06:07:31;14.0;;;8.0;;
45382;SDS011;42455;51.660;5.824;2023-07-30T06:12:37;17.0;;;8.0;;
45382;SDS011;42455;51.660;5.824;2023-07-30T06:17:44;15.0;;;9.0;;
45382;SDS011;42455;51.660;5.824;2023-07-30T06:22:50;17.0;;;9.0;;
45382;SDS011;42455;51.660;5.824;2023-07-30T06:27:56;17.5;;;9.0;;
45382;SDS011;42455;51.660;5.824;2023-07-30T06:33:02;15.0;;;9.0;;
45382;SDS011;42455;51.660;5.824;2023-07-30T06:38:08;16.0;;;9.0;;
45382;SDS011;42455;51.660;5.824;2023-07-30T06:43:15;16.0;;;9.0;;
45382;SDS011;42455;51.660;5.824;2023-07-30T06:48:21;16.5;;;10.0;;
45382;SDS011;42455;51.660;5.824;2023-07-30T06:53:27;17.0;;;10.0;;
45382;SDS011;42455;51.660;5.824;2023-07-30T06:58:33;16.0;;;10.0;;
45382;SDS011;42455;51.660;5.824;2023-07-30T07:03:39;18.0;;;10.0;;
45382;SDS011;42455;51.660;5.824;2023-07-30T07:08:46;18.0;;;9.0;;
45382;SDS011;42455;51.660;5.824;2023-07-30T07:13:52;18.0;;;9.0;;
45382;SDS011;42455;51.660;5.824;2023-07-30T07:18:58;16.0;;;9.0;;
45382;SDS011;42455;51.660;5.824;2023-07-30T07:24:04;18.0;;;8.0;;
45382;SDS011;42455;51.660;5.824;2023-07-30T07:29:11;13.5;;;7.0;;
45382;SDS011;42455;51.660;5.824;2023-07-30T07:34:17;13.0;;;6.0;;
45382;SDS011;42455;51.660;5.824;2023-07-30T07:39:22;14.0;;;6.0;;
45382;SDS011;42455;51.660;5.824;2023-07-30T07:44:28;14.0;;;5.0;;
45382;SDS011;42455;51.660;5.824;2023-07-30T07:49:34;15.0;;;4.0;;
45382;SDS011;42455;51.660;5.824;2023-07-30T07:54:41;12.0;;;5.0;;
45382;SDS011;42455;51.660;5.824;2023-07-30T07:59:47;14.0;;;5.0;;
45382;SDS011;42455;51.660;5.824;2023-07-30T08:04:53;11.0;;;4.0;;
45382;SDS011;42455;51.660;5.824;2023-07-30T08:09:58;11.0;;;4.0;;
45382;SDS011;42455;51.660;5.824;2023-07-30T08:15:04;11.0;;;4.0;;
45382;SDS011;42455;51.660;5.824;2023-07-30T08:20:11;10.0;;;4.0;;
45382;SDS011;42455;51.660;5.824;2023-07-30T08:25:17;10.0;;;4.0;;
45382;SDS011;42455;51.660;5.824;2023-07-30T08:30:23;9.0;;;4.0;;
45382;SDS011;42455;51.660;5.824;2023-07-30T08:35:29;11.0;;;4.0;;
45382;SDS011;42455;51.660;5.824;2023-07-30T08:40:35;9.0;;;3.0;;
45382;SDS011;42455;51.660;5.824;2023-07-30T08:45:42;12.0;;;4.0;;
45382;SDS011;42455;51.660;5.824;2023-07-30T08:50:48;12.0;;;4.0;;
45382;SDS011;42455;51.660;5.824;2023-07-30T08:55:54;11.5;;;4.0;;
45382;SDS011;42455;51.660;5.824;2023-07-30T09:01:01;12.0;;;4.0;;
45382;SDS011;42455;51.660;5.824;2023-07-30T09:06:07;13.0;;;4.0;;
45382;SDS011;42455;51.660;5.824;2023-07-30T09:11:13;10.0;;;4.0;;
45382;SDS011;42455;51.660;5.824;2023-07-30T09:16:19;11.0;;;4.0;;
45382;SDS011;42455;51.660;5.824;2023-07-30T09:21:29;10.0;;;4.0;;
45382;SDS011;42455;51.660;5.824;2023-07-30T09:26:31;10.0;;;3.0;;
45382;SDS011;42455;51.660;5.824;2023-07-30T09:31:53;10.0;;;3.5;;
45382;SDS011;42455;51.660;5.824;2023-07-30T09:36:44;9.0;;;3.0;;
45382;SDS011;42455;51.660;5.824;2023-07-30T09:41:51;10.0;;;4.0;;
45382;SDS011;42455;51.660;5.824;2023-07-30T09:46:56;7.0;;;2.5;;
45382;SDS011;42455;51.660;5.824;2023-07-30T09:52:03;10.0;;;3.0;;
45382;SDS011;42455;51.660;5.824;2023-07-30T09:57:09;10.0;;;3.0;;
45382;SDS011;42455;51.660;5.824;2023-07-30T10:02:15;9.0;;;3.0;;
45382;SDS011;42455;51.660;5.824;2023-07-30T10:07:21;7.5;;;3.0;;
45382;SDS011;42455;51.660;5.824;2023-07-30T10:12:29;8.0;;;3.0;;
45382;SDS011;42455;51.660;5.824;2023-07-30T10:17:33;7.0;;;3.0;;
45382;SDS011;42455;51.660;5.824;2023-07-30T10:22:40;9.0;;;3.0;;
45382;SDS011;42455;51.660;5.824;2023-07-30T10:27:48;8.0;;;3.0;;
45382;SDS011;42455;51.660;5.824;2023-07-30T10:33:00;7.0;;;3.0;;
45382;SDS011;42455;51.660;5.824;2023-07-30T10:37:58;3.0;;;1.0;;
45382;SDS011;42455;51.660;5.824;2023-07-30T10:43:04;3.0;;;1.0;;
45382;SDS011;42455;51.660;5.824;2023-07-30T10:48:11;3.0;;;2.0;;
45382;SDS011;42455;51.660;5.824;2023-07-30T10:53:17;3.0;;;1.0;;
45382;SDS011;42455;51.660;5.824;2023-07-30T10:58:23;3.0;;;2.0;;
45382;SDS011;42455;51.660;5.824;2023-07-30T11:03:29;4.0;;;2.0;;
45382;SDS011;42455;51.660;5.824;2023-07-30T11:08:37;3.0;;;2.0;;
45382;SDS011;42455;51.660;5.824;2023-07-30T11:13:45;7.0;;;3.0;;
45382;SDS011;42455;51.660;5.824;2023-07-30T11:18:48;6.0;;;3.0;;
45382;SDS011;42455;51.660;5.824;2023-07-30T11:23:54;8.0;;;3.0;;
45382;SDS011;42455;51.660;5.824;2023-07-30T11:29:00;6.0;;;4.0;;
45382;SDS011;42455;51.660;5.824;2023-07-30T11:34:07;8.0;;;3.0;;
45382;SDS011;42455;51.660;5.824;2023-07-30T11:39:13;6.0;;;3.0;;
45382;SDS011;42455;51.660;5.824;2023-07-30T11:44:30;6.0;;;2.0;;
45382;SDS011;42455;51.660;5.824;2023-07-30T11:49:25;5.0;;;2.0;;
45382;SDS011;42455;51.660;5.824;2023-07-30T11:54:32;6.0;;;2.0;;
45382;SDS011;42455;51.660;5.824;2023-07-30T11:59:38;5.0;;;2.0;;
45382;SDS011;42455;51.660;5.824;2023-07-30T12:04:45;5.0;;;2.0;;
45382;SDS011;42455;51.660;5.824;2023-07-30T12:09:50;6.0;;;2.0;;
45382;SDS011;42455;51.660;5.824;2023-07-30T12:14:56;5.0;;;1.5;;
45382;SDS011;42455;51.660;5.824;2023-07-30T12:20:02;4.5;;;2.0;;
45382;SDS011;42455;51.660;5.824;2023-07-30T12:25:09;3.0;;;1.0;;
45382;SDS011;42455;51.660;5.824;2023-07-30T12:30:15;3.5;;;1.0;;
45382;SDS011;42455;51.660;5.824;2023-07-30T12:35:21;3.0;;;1.0;;
45382;SDS011;42455;51.660;5.824;2023-07-30T12:40:27;2.0;;;1.0;;
45382;SDS011;42455;51.660;5.824;2023-07-30T12:45:34;4.0;;;1.0;;
45382;SDS011;42455;51.660;5.824;2023-07-30T12:50:40;3.5;;;1.0;;
45382;SDS011;42455;51.660;5.824;2023-07-30T12:55:46;3.0;;;1.0;;
45382;SDS011;42455;51.660;5.824;2023-07-30T13:00:52;3.0;;;1.0;;
45382;SDS011;42455;51.660;5.824;2023-07-30T13:05:58;3.0;;;1.0;;
45382;SDS011;42455;51.660;5.824;2023-07-30T13:11:05;3.0;;;1.0;;
45382;SDS011;42455;51.660;5.824;2023-07-30T13:16:11;2.5;;;1.0;;
45382;SDS011;42455;51.660;5.824;2023-07-30T13:21:17;3.0;;;1.0;;
45382;SDS011;42455;51.660;5.824;2023-07-30T13:26:23;3.5;;;1.0;;
45382;SDS011;42455;51.660;5.824;2023-07-30T13:31:30;3.0;;;1.0;;
45382;SDS011;42455;51.660;5.824;2023-07-30T13:36:36;3.0;;;1.0;;
45382;SDS011;42455;51.660;5.824;2023-07-30T13:41:41;3.0;;;1.0;;
45382;SDS011;42455;51.660;5.824;2023-07-30T13:46:47;3.0;;;1.0;;
45382;SDS011;42455;51.660;5.824;2023-07-30T13:51:53;2.0;;;1.0;;
45382;SDS011;42455;51.660;5.824;2023-07-30T13:57:02;2.0;;;1.0;;
45382;SDS011;42455;51.660;5.824;2023-07-30T14:02:06;1.0;;;0.0;;
45382;SDS011;42455;51.660;5.824;2023-07-30T14:07:12;2.0;;;0.0;;
45382;SDS011;42455;51.660;5.824;2023-07-30T14:12:18;2.5;;;1.0;;
45382;SDS011;42455;51.660;5.824;2023-07-30T14:17:24;2.0;;;1.0;;
45382;SDS011;42455;51.660;5.824;2023-07-30T14:22:31;3.0;;;1.0;;
45382;SDS011;42455;51.660;5.824;2023-07-30T14:27:37;2.0;;;1.0;;
45382;SDS011;42455;51.660;5.824;2023-07-30T14:32:43;2.5;;;1.0;;
45382;SDS011;42455;51.660;5.824;2023-07-30T14:37:49;3.0;;;1.0;;
45382;SDS011;42455;51.660;5.824;2023-07-30T14:42:55;2.0;;;1.0;;
45382;SDS011;42455;51.660;5.824;2023-07-30T14:48:02;3.0;;;1.0;;
45382;SDS011;42455;51.660;5.824;2023-07-30T14:58:14;4.0;;;1.0;;
45382;SDS011;42455;51.660;5.824;2023-07-30T15:03:20;3.0;;;1.0;;
45382;SDS011;42455;51.660;5.824;2023-07-30T15:08:26;4.0;;;1.0;;
45382;SDS011;42455;51.660;5.824;2023-07-30T15:13:33;5.0;;;1.0;;
45382;SDS011;42455;51.660;5.824;2023-07-30T15:18:40;4.0;;;1.0;;
45382;SDS011;42455;51.660;5.824;2023-07-30T15:23:45;4.0;;;1.0;;
45382;SDS011;42455;51.660;5.824;2023-07-30T15:28:51;5.0;;;1.0;;
45382;SDS011;42455;51.660;5.824;2023-07-30T15:33:58;4.0;;;1.0;;
45382;SDS011;42455;51.660;5.824;2023-07-30T15:39:04;4.0;;;1.0;;
45382;SDS011;42455;51.660;5.824;2023-07-30T15:44:10;4.0;;;1.0;;
45382;SDS011;42455;51.660;5.824;2023-07-30T15:49:16;4.0;;;1.0;;
45382;SDS011;42455;51.660;5.824;2023-07-30T15:54:30;3.0;;;1.0;;
45382;SDS011;42455;51.660;5.824;2023-07-30T15:59:29;4.0;;;1.0;;
45382;SDS011;42455;51.660;5.824;2023-07-30T16:04:35;5.0;;;1.0;;
45382;SDS011;42455;51.660;5.824;2023-07-30T16:09:41;4.0;;;1.0;;
45382;SDS011;42455;51.660;5.824;2023-07-30T16:14:50;4.0;;;1.0;;
45382;SDS011;42455;51.660;5.824;2023-07-30T16:19:54;4.0;;;1.0;;
45382;SDS011;42455;51.660;5.824;2023-07-30T16:25:00;5.0;;;1.0;;
45382;SDS011;42455;51.660;5.824;2023-07-30T16:30:06;5.0;;;1.0;;
45382;SDS011;42455;51.660;5.824;2023-07-30T16:35:12;4.0;;;1.0;;
45382;SDS011;42455;51.660;5.824;2023-07-30T16:40:18;4.0;;;2.0;;
45382;SDS011;42455;51.660;5.824;2023-07-30T16:45:24;4.0;;;2.0;;
45382;SDS011;42455;51.660;5.824;2023-07-30T16:50:31;5.0;;;2.0;;
45382;SDS011;42455;51.660;5.824;2023-07-30T16:55:37;5.0;;;2.0;;
45382;SDS011;42455;51.660;5.824;2023-07-30T17:00:43;4.0;;;2.0;;
45382;SDS011;42455;51.660;5.824;2023-07-30T17:05:56;5.0;;;2.0;;
45382;SDS011;42455;51.660;5.824;2023-07-30T17:10:56;7.0;;;2.0;;
45382;SDS011;42455;51.660;5.824;2023-07-30T17:16:04;5.0;;;2.0;;
45382;SDS011;42455;51.660;5.824;2023-07-30T17:21:08;5.0;;;2.0;;
45382;SDS011;42455;51.660;5.824;2023-07-30T17:26:14;6.5;;;3.0;;
45382;SDS011;42455;51.660;5.824;2023-07-30T17:31:20;5.0;;;2.0;;
45382;SDS011;42455;51.660;5.824;2023-07-30T17:36:27;4.0;;;2.0;;
45382;SDS011;42455;51.660;5.824;2023-07-30T17:41:33;3.0;;;1.0;;
45382;SDS011;42455;51.660;5.824;2023-07-30T17:46:39;4.0;;;1.0;;
45382;SDS011;42455;51.660;5.824;2023-07-30T17:51:45;4.0;;;2.0;;
45382;SDS011;42455;51.660;5.824;2023-07-30T17:56:51;3.5;;;2.0;;
45382;SDS011;42455;51.660;5.824;2023-07-30T18:01:58;3.0;;;2.0;;
45382;SDS011;42455;51.660;5.824;2023-07-30T18:07:04;4.0;;;2.0;;
45382;SDS011;42455;51.660;5.824;2023-07-30T18:12:10;4.0;;;2.0;;
45382;SDS011;42455;51.660;5.824;2023-07-30T18:17:16;4.0;;;2.0;;
45382;SDS011;42455;51.660;5.824;2023-07-30T18:22:22;4.0;;;2.0;;
45382;SDS011;42455;51.660;5.824;2023-07-30T18:27:29;5.0;;;2.0;;
45382;SDS011;42455;51.660;5.824;2023-07-30T18:32:35;5.5;;;2.0;;
45382;SDS011;42455;51.660;5.824;2023-07-30T18:37:41;5.0;;;3.0;;
45382;SDS011;42455;51.660;5.824;2023-07-30T18:42:47;7.0;;;3.0;;
45382;SDS011;42455;51.660;5.824;2023-07-30T18:47:54;6.0;;;3.0;;
45382;SDS011;42455;51.660;5.824;2023-07-30T18:53:00;6.0;;;3.0;;
45382;SDS011;42455;51.660;5.824;2023-07-30T18:58:06;5.0;;;3.0;;
45382;SDS011;42455;51.660;5.824;2023-07-30T19:03:12;6.0;;;3.0;;
45382;SDS011;42455;51.660;5.824;2023-07-30T19:08:18;5.0;;;3.0;;
45382;SDS011;42455;51.660;5.824;2023-07-30T19:13:23;6.0;;;3.0;;
45382;SDS011;42455;51.660;5.824;2023-07-30T19:18:30;4.0;;;2.0;;
45382;SDS011;42455;51.660;5.824;2023-07-30T19:23:36;3.0;;;2.0;;
45382;SDS011;42455;51.660;5.824;2023-07-30T19:28:42;4.0;;;2.0;;
45382;SDS011;42455;51.660;5.824;2023-07-30T19:33:48;5.0;;;2.0;;
45382;SDS011;42455;51.660;5.824;2023-07-30T19:38:55;3.0;;;2.0;;
45382;SDS011;42455;51.660;5.824;2023-07-30T19:44:01;3.0;;;2.0;;
45382;SDS011;42455;51.660;5.824;2023-07-30T19:49:07;2.0;;;1.0;;
45382;SDS011;42455;51.660;5.824;2023-07-30T19:54:13;2.0;;;1.5;;
45382;SDS011;42455;51.660;5.824;2023-07-30T19:59:19;3.0;;;1.0;;
45382;SDS011;42455;51.660;5.824;2023-07-30T20:04:26;2.0;;;1.0;;
45382;SDS011;42455;51.660;5.824;2023-07-30T20:09:32;2.0;;;1.0;;
45382;SDS011;42455;51.660;5.824;2023-07-30T20:14:38;2.0;;;1.0;;
45382;SDS011;42455;51.660;5.824;2023-07-30T20:19:44;1.0;;;1.0;;
45382;SDS011;42455;51.660;5.824;2023-07-30T20:24:50;1.5;;;1.0;;
45382;SDS011;42455;51.660;5.824;2023-07-30T20:29:57;1.0;;;1.0;;
45382;SDS011;42455;51.660;5.824;2023-07-30T20:35:03;1.0;;;1.0;;
45382;SDS011;42455;51.660;5.824;2023-07-30T20:40:09;1.0;;;1.0;;
45382;SDS011;42455;51.660;5.824;2023-07-30T20:45:15;1.0;;;1.0;;
45382;SDS011;42455;51.660;5.824;2023-07-30T20:50:22;1.0;;;1.0;;
45382;SDS011;42455;51.660;5.824;2023-07-30T20:55:28;1.0;;;1.0;;
45382;SDS011;42455;51.660;5.824;2023-07-30T21:00:34;2.0;;;1.0;;
45382;SDS011;42455;51.660;5.824;2023-07-30T21:05:40;2.0;;;1.0;;
45382;SDS011;42455;51.660;5.824;2023-07-30T21:10:46;2.0;;;1.0;;
45382;SDS011;42455;51.660;5.824;2023-07-30T21:15:53;1.0;;;1.0;;
45382;SDS011;42455;51.660;5.824;2023-07-30T21:20:59;1.0;;;1.0;;
45382;SDS011;42455;51.660;5.824;2023-07-30T21:26:06;2.0;;;1.0;;
45382;SDS011;42455;51.660;5.824;2023-07-30T21:31:11;2.0;;;1.0;;
45382;SDS011;42455;51.660;5.824;2023-07-30T21:36:17;2.0;;;1.0;;
45382;SDS011;42455;51.660;5.824;2023-07-30T21:41:23;1.0;;;1.0;;
45382;SDS011;42455;51.660;5.824;2023-07-30T21:46:30;1.0;;;1.0;;
45382;SDS011;42455;51.660;5.824;2023-07-30T21:51:36;1.0;;;1.0;;
45382;SDS011;42455;51.660;5.824;2023-07-30T21:56:42;1.0;;;1.0;;
45382;SDS011;42455;51.660;5.824;2023-07-30T22:01:48;2.0;;;1.0;;
45382;SDS011;42455;51.660;5.824;2023-07-30T22:06:55;1.0;;;1.0;;
45382;SDS011;42455;51.660;5.824;2023-07-30T22:12:01;2.0;;;1.0;;
45382;SDS011;42455;51.660;5.824;2023-07-30T22:17:07;2.0;;;1.0;;
45382;SDS011;42455;51.660;5.824;2023-07-30T22:22:13;3.0;;;1.0;;
45382;SDS011;42455;51.660;5.824;2023-07-30T22:27:20;2.0;;;1.0;;
45382;SDS011;42455;51.660;5.824;2023-07-30T22:32:26;2.0;;;1.0;;
45382;SDS011;42455;51.660;5.824;2023-07-30T22:37:32;2.0;;;1.0;;
45382;SDS011;42455;51.660;5.824;2023-07-30T22:42:38;1.0;;;1.0;;
45382;SDS011;42455;51.660;5.824;2023-07-30T22:47:44;1.0;;;1.0;;
45382;SDS011;42455;51.660;5.824;2023-07-30T22:52:50;2.0;;;1.0;;
45382;SDS011;42455;51.660;5.824;2023-07-30T22:57:57;2.0;;;2.0;;
45382;SDS011;42455;51.660;5.824;2023-07-30T23:03:03;2.0;;;2.0;;
45382;SDS011;42455;51.660;5.824;2023-07-30T23:08:09;3.0;;;2.0;;
45382;SDS011;42455;51.660;5.824;2023-07-30T23:13:15;4.0;;;3.0;;
45382;SDS011;42455;51.660;5.824;2023-07-30T23:18:21;6.0;;;4.0;;
45382;SDS011;42455;51.660;5.824;2023-07-30T23:23:28;7.0;;;5.0;;
45382;SDS011;42455;51.660;5.824;2023-07-30T23:28:34;8.0;;;5.0;;
45382;SDS011;42455;51.660;5.824;2023-07-30T23:33:40;7.0;;;6.0;;
45382;SDS011;42455;51.660;5.824;2023-07-30T23:38:46;10.0;;;6.5;;
45382;SDS011;42455;51.660;5.824;2023-07-30T23:43:53;10.0;;;8.0;;
45382;SDS011;42455;51.660;5.824;2023-07-30T23:48:59;12.0;;;8.0;;
45382;SDS011;42455;51.660;5.824;2023-07-30T23:54:05;14.0;;;10.0;;
45382;SDS011;42455;51.660;5.824;2023-07-30T23:59:11;16.0;;;11.0;;
